map of RJTI home
RJTI - Heliport
Location
City:  Tokyo, Tokyo, Japan
Name:Heliport
ICAO:RJTI

Details
Type:Heliport
Use:Private
Latitude:35°38'10"N (35.636111)
Longitude:139°50'22"E (139.839444)
Elevation:16 ft (5 m)
Variation:7.55°W (WMM2015v2 magnetic declination)
-0.06° annual change
Helipads:1
Largest:295 × 98 ft (90 × 30 m), paved

Time
Time Zone:UTC+9
Local Time:

Weather
METAR:RJTI 040700Z 35006KT 300V060 9999 FEW030 17/M04 Q1009

Related Locations
Nearby:
Farthest:SNPV: 11749 mi / 18908 km
Mostardas [Solidão], RS, BR

Find:

   beyond  
but within

Other Information
Maps:
NOTAMs:
Links:
Sources:

  
  • flag of Japan
  • flag of Tokyo
  

Sectional Chart

Flight Planning
at skyvector.com

Satellite Image

Google Maps Satellite view

 

Copyright © 2004-2019 Karl L. Swartz. All rights reserved.
The Great Circle Mapper name and logo are trademarks of the Great Circle Mapper.
All other trademarks mentioned herein belong to their respective owners.
Please see credits for attibutions and further copyright information.

  Follow gcmap on Facebook Follow gcmap on Twitter GCmap on LinkedIn

hCard Microformat

Geo Microformat